Terminal Aerodrome Forecast
Issued by NWS

Home | Current Version | Previous Version | Text Only | Print | Product List | Glossary On
Versions: 1 2 3 4 5 6 7 8 9 10 11 12 13 14 15 16 17 18 19 20 21
000
FTUS44 KLIX 161700
TAFGPT
TAF
KGPT 161733Z 1618/1718 05006KT P6SM SKC
     FM171000 08007KT P6SM SCT090
     FM171100 08007KT P6SM SCT020
     FM171200 07008KT P6SM BKN030
     FM171600 09010KT P6SM BKN035=

USA.gov is the U.S. government's official web portal to all federal, state and local government web resources and services.